Time;durP1;ratioP1;P1;durP2;ratioP2;P2;SDS_P1;SDS_P2;PMS_P1;PMS_P2;Temp;Humidity;BMP_temperature;BMP_pressure;BME280_temperature;BME280_humidity;BME280_pressure;Samples;Min_cycle;Max_cycle;Signal;HPM_P1;HPM_P2
2023/07/22 00:01:20;;;;;;;;;;;;;;;18.60;100.00;99491.79;104049;1271;72933;-57
2023/07/22 00:03:48;;;;;;;;;;;;;;;18.67;100.00;99493.01;103965;1279;69414;-57
2023/07/22 00:06:16;;;;;;;5.60;3.20;;;;;;;18.57;100.00;99494.86;104122;1272;72539;-56
2023/07/22 00:08:44;;;;;;;;;;;;;;;18.53;100.00;99489.90;105040;1264;61449;-57
2023/07/22 00:11:12;;;;;;;5.00;3.20;;;;;;;18.54;100.00;99490.31;104179;1263;59806;-56
2023/07/22 00:13:39;;;;;;;4.50;3.20;;;;;;;18.57;100.00;99487.99;104004;1263;73261;-57
2023/07/22 00:16:07;;;;;;;4.10;3.00;;;;;;;18.55;100.00;99479.64;104104;1263;69711;-57
2023/07/22 00:18:37;;;;;;;4.00;3.40;;;;;;;18.50;100.00;99470.09;103988;1263;71242;-57
2023/07/22 00:21:04;;;;;;;4.40;3.30;;;;;;;18.41;100.00;99467.39;104099;1261;60915;-58
2023/07/22 00:23:32;;;;;;;3.50;3.20;;;;;;;18.29;100.00;99464.01;104043;1266;59733;-57
2023/07/22 00:25:59;;;;;;;3.30;3.00;;;;;;;18.25;100.00;99465.07;103962;1260;73183;-57
2023/07/22 00:28:27;;;;;;;3.40;3.10;;;;;;;18.26;100.00;99459.34;103928;1279;69747;-56
2023/07/22 00:30:57;;;;;;;3.50;3.00;;;;;;;18.28;100.00;99466.05;103947;1260;73347;-56
2023/07/22 00:33:25;;;;;;;3.20;3.00;;;;;;;18.32;100.00;99461.49;104036;1260;61538;-56
2023/07/22 00:35:52;;;;;;;3.60;3.20;;;;;;;18.32;100.00;99457.95;104126;1257;59822;-56
2023/07/22 00:38:20;;;;;;;3.60;3.30;;;;;;;18.33;100.00;99455.11;104060;1264;73245;-59
2023/07/22 00:40:48;;;;;;;4.20;3.00;;;;;;;18.35;100.00;99452.05;103920;1281;68113;-57
2023/07/22 00:43:16;;;;;;;3.40;2.90;;;;;;;18.39;100.00;99450.52;104095;1267;71125;-57
2023/07/22 00:45:44;;;;;;;;;;;;;;;18.46;100.00;99449.25;104010;1266;61528;-58
2023/07/22 00:48:11;;;;;;;;;;;;;;;18.49;100.00;99444.05;104089;1257;59714;-58
2023/07/22 00:50:39;;;;;;;3.10;2.70;;;;;;;18.41;100.00;99445.08;104109;1273;73201;-58
2023/07/22 00:53:06;;;;;;;5.40;3.20;;;;;;;18.37;100.00;99437.94;104164;1263;69128;-57
2023/07/22 00:55:35;;;;;;;3.60;3.10;;;;;;;18.37;100.00;99433.80;104069;1271;72557;-57
2023/07/22 00:58:03;;;;;;;5.70;3.70;;;;;;;18.39;100.00;99437.02;104163;1264;62550;-57
2023/07/22 01:00:31;;;;;;;5.40;4.00;;;;;;;18.42;100.00;99434.79;103993;1258;59696;-57
2023/07/22 01:02:59;;;;;;;3.90;3.60;;;;;;;18.46;100.00;99436.15;104279;1267;72787;-57
2023/07/22 01:05:27;;;;;;;;;;;;;;;18.47;100.00;99434.46;103823;1265;69197;-58
2023/07/22 01:07:55;;;;;;;3.10;2.90;;;;;;;18.50;100.00;99432.08;104807;1257;72493;-57
2023/07/22 01:10:22;;;;;;;;;;;;;;;18.53;100.00;99426.71;104630;1257;63345;-57
2023/07/22 01:12:50;;;;;;;;;;;;;;;18.55;100.00;99429.70;104446;1263;60044;-58
2023/07/22 01:15:18;;;;;;;;;;;;;;;18.56;100.00;99432.67;107743;1256;71788;-58
2023/07/22 01:17:45;;;;;;;4.00;3.10;;;;;;;18.56;100.00;99432.86;104460;1260;69475;-57
2023/07/22 01:20:13;;;;;;;3.70;3.20;;;;;;;18.56;100.00;99433.17;104411;1264;71406;-58
2023/07/22 01:22:41;;;;;;;3.50;3.10;;;;;;;18.56;100.00;99432.30;104234;1267;62323;-57
2023/07/22 01:25:09;;;;;;;3.60;3.30;;;;;;;18.60;100.00;99434.31;104062;1261;60688;-57
2023/07/22 01:27:37;;;;;;;3.60;3.30;;;;;;;18.65;100.00;99444.04;103846;1267;73632;-57
2023/07/22 01:30:06;;;;;;;3.50;3.20;;;;;;;18.67;100.00;99448.10;104040;1257;68296;-57
2023/07/22 01:32:34;;;;;;;8.30;3.50;;;;;;;18.67;100.00;99441.02;104071;1274;71304;-57
2023/07/22 01:35:02;;;;;;;4.50;3.30;;;;;;;18.66;100.00;99441.41;104108;1263;61502;-57
2023/07/22 01:37:31;;;;;;;3.70;3.40;;;;;;;18.65;100.00;99443.28;104095;1263;59801;-57
2023/07/22 01:39:59;;;;;;;6.00;3.60;;;;;;;18.60;100.00;99446.05;104119;1270;73676;-58
2023/07/22 01:42:27;;;;;;;3.30;3.00;;;;;;;18.51;100.00;99449.08;104151;1270;69136;-57
2023/07/22 01:44:55;;;;;;;;;;;;;;;18.40;100.00;99451.10;104116;1262;72458;-58
2023/07/22 01:47:23;;;;;;;4.50;2.60;;;;;;;18.38;100.00;99449.87;104145;1262;61473;-57
2023/07/22 01:49:52;;;;;;;4.20;3.00;;;;;;;18.38;100.00;99441.73;103986;1261;59680;-57
2023/07/22 01:52:20;;;;;;;5.30;2.90;;;;;;;18.38;100.00;99447.25;103953;1263;73722;-57
2023/07/22 01:54:47;;;;;;;2.80;2.60;;;;;;;18.36;100.00;99450.21;103976;1264;68796;-58
2023/07/22 01:57:15;;;;;;;;;;;;;;;18.36;100.00;99448.47;103946;1266;72480;-57
2023/07/22 01:59:43;;;;;;;5.80;3.10;;;;;;;18.38;100.00;99450.78;104161;1264;61786;-57
2023/07/22 02:02:11;;;;;;;3.30;3.00;;;;;;;18.38;100.00;99451.29;103760;1277;60541;-57
2023/07/22 02:04:38;;;;;;;2.90;2.70;;;;;;;18.39;100.00;99449.48;103887;1258;73846;-57
2023/07/22 02:07:06;;;;;;;2.80;2.50;;;;;;;18.37;100.00;99446.24;104057;1262;70042;-57
2023/07/22 02:09:34;;;;;;;3.50;2.50;;;;;;;18.35;100.00;99451.21;103824;1264;71119;-57
2023/07/22 02:12:03;;;;;;;2.50;2.30;;;;;;;18.33;100.00;99451.14;104113;1258;61843;-57
2023/07/22 02:14:31;;;;;;;;;;;;;;;18.34;100.00;99452.36;107217;1258;60047;-58
2023/07/22 02:16:58;;;;;;;3.80;2.60;;;;;;;18.35;100.00;99457.92;104017;1263;73761;-57
2023/07/22 02:19:26;;;;;;;;;;;;;;;18.34;100.00;99458.71;104093;1267;69238;-57
2023/07/22 02:21:54;;;;;;;4.20;2.80;;;;;;;18.31;100.00;99461.42;103904;1260;73315;-57
2023/07/22 02:24:22;;;;;;;4.80;3.00;;;;;;;18.32;100.00;99462.80;103886;1260;61892;-57
2023/07/22 02:26:50;;;;;;;3.10;2.90;;;;;;;18.34;100.00;99459.80;104034;1264;60685;-57
2023/07/22 02:29:19;;;;;;;;;;;;;;;18.35;100.00;99455.63;103925;1273;73634;-57
2023/07/22 02:31:47;;;;;;;2.80;2.60;;;;;;;18.34;100.00;99456.75;103940;1273;69572;-57
2023/07/22 02:34:16;;;;;;;;;;;;;;;18.37;100.00;99456.38;103992;1264;72884;-57
2023/07/22 02:36:44;;;;;;;3.90;2.50;;;;;;;18.38;100.00;99456.93;104034;1263;61787;-57
2023/07/22 02:39:11;;;;;;;5.40;2.60;;;;;;;18.40;100.00;99453.13;103879;1257;59839;-57
2023/07/22 02:41:41;;;;;;;4.20;3.00;;;;;;;18.40;100.00;99452.73;104151;1263;73749;-57
2023/07/22 02:44:08;;;;;;;;;;;;;;;18.43;100.00;99456.74;103947;1262;69473;-57
2023/07/22 02:46:36;;;;;;;;;;;;;;;18.46;100.00;99465.27;104079;1261;71886;-57
2023/07/22 02:49:05;;;;;;;4.10;2.90;;;;;;;18.46;100.00;99467.48;104081;1257;61768;-56
2023/07/22 02:51:32;;;;;;;4.60;2.80;;;;;;;18.48;100.00;99464.56;104483;1260;60771;-57
2023/07/22 02:54:00;;;;;;;2.80;2.50;;;;;;;18.53;100.00;99463.80;103941;1271;72594;-57
2023/07/22 02:56:28;;;;;;;4.90;2.60;;;;;;;18.62;100.00;99462.75;103917;1273;69987;-56
2023/07/22 02:58:56;;;;;;;2.70;2.50;;;;;;;18.70;100.00;99458.21;104028;1263;72378;-57
2023/07/22 03:01:24;;;;;;;8.10;3.10;;;;;;;18.73;100.00;99458.30;104002;1271;61749;-57
2023/07/22 03:03:52;;;;;;;4.00;2.30;;;;;;;18.77;100.00;99458.71;104040;1264;60502;-57
2023/07/22 03:06:20;;;;;;;3.50;2.40;;;;;;;18.78;100.00;99455.98;104192;1266;73592;-57
2023/07/22 03:08:48;;;;;;;3.30;2.10;;;;;;;18.81;100.00;99455.42;104146;1273;69172;-57
2023/07/22 03:11:16;;;;;;;5.90;2.30;;;;;;;18.82;100.00;99450.66;104018;1261;72365;-56
2023/07/22 03:13:44;;;;;;;2.80;2.60;;;;;;;18.88;100.00;99448.63;104023;1257;60802;-56
2023/07/22 03:16:13;;;;;;;3.10;2.80;;;;;;;18.93;100.00;99451.05;104180;1261;60564;-57
2023/07/22 03:18:44;;;;;;;6.20;3.30;;;;;;;18.95;100.00;99444.54;103949;1258;73795;-56
2023/07/22 03:21:12;;;;;;;3.60;2.60;;;;;;;18.98;100.00;99437.00;103911;1258;69665;-56
2023/07/22 03:23:40;;;;;;;4.20;2.30;;;;;;;19.02;100.00;99440.05;103878;1272;72883;-57
2023/07/22 03:26:08;;;;;;;2.60;2.40;;;;;;;19.07;100.00;99433.26;103821;1261;62377;-57
2023/07/22 03:28:35;;;;;;;3.30;2.40;;;;;;;19.12;100.00;99429.14;104100;1268;60636;-57
2023/07/22 03:31:04;;;;;;;3.60;2.40;;;;;;;19.18;100.00;99432.91;103847;1262;73639;-61
2023/07/22 03:33:32;;;;;;;2.30;2.10;;;;;;;19.21;100.00;99428.37;104343;1257;70473;-58
2023/07/22 03:35:59;;;;;;;2.80;2.50;;;;;;;19.22;100.00;99425.09;104003;1258;73301;-57
2023/07/22 03:38:27;;;;;;;2.90;2.10;;;;;;;19.24;100.00;99420.27;103953;1260;61615;-56
2023/07/22 03:40:55;;;;;;;3.30;2.50;;;;;;;19.24;100.00;99427.05;104004;1260;60430;-58
2023/07/22 03:43:22;;;;;;;2.40;2.20;;;;;;;19.25;100.00;99425.70;104158;1257;73680;-57
2023/07/22 03:45:50;;;;;;;2.90;2.70;;;;;;;19.31;100.00;99427.75;103918;1275;69129;-57
2023/07/22 03:48:18;;;;;;;4.50;2.80;;;;;;;19.34;100.00;99429.10;104079;1264;72381;-56
2023/07/22 03:50:46;;;;;;;3.10;2.60;;;;;;;19.36;100.00;99426.61;104135;1257;61998;-58
2023/07/22 03:53:13;;;;;;;2.90;2.60;;;;;;;19.37;100.00;99429.05;104100;1262;60101;-57
2023/07/22 03:55:41;;;;;;;;;;;;;;;19.38;100.00;99430.20;103999;1273;74121;-57
2023/07/22 03:58:09;;;;;;;3.00;2.70;;;;;;;19.39;100.00;99422.25;104082;1263;69044;-57
2023/07/22 04:00:38;;;;;;;2.60;2.20;;;;;;;19.41;100.00;99425.98;103894;1263;72453;-57
2023/07/22 04:03:05;;;;;;;2.60;2.40;;;;;;;19.47;100.00;99430.34;104110;1264;60655;-57
2023/07/22 04:05:33;;;;;;;;;;;;;;;19.45;100.00;99434.52;103982;1264;60523;-57
2023/07/22 04:08:01;;;;;;;2.60;2.40;;;;;;;19.45;100.00;99435.08;104192;1271;74485;-57
2023/07/22 04:10:28;;;;;;;3.00;2.60;;;;;;;19.47;100.00;99437.92;104029;1269;70045;-57
2023/07/22 04:12:56;;;;;;;4.30;3.10;;;;;;;19.50;100.00;99430.25;105614;1259;72440;-57
2023/07/22 04:15:24;;;;;;;3.40;3.20;;;;;;;19.50;100.00;99431.67;104613;1257;61401;-57
2023/07/22 04:17:53;;;;;;;5.90;4.10;;;;;;;19.50;100.00;99437.35;107646;1257;59829;-58
2023/07/22 04:20:24;;;;;;;6.20;4.30;;;;;;;19.45;100.00;99439.86;104028;1262;74450;-57
2023/07/22 04:22:51;;;;;;;5.90;4.20;;;;;;;19.42;100.00;99443.67;104153;1269;69754;-59
2023/07/22 04:25:20;;;;;;;4.30;3.90;;;;;;;19.41;100.00;99444.68;104076;1269;72496;-55
2023/07/22 04:27:48;;;;;;;;;;;;;;;19.42;100.00;99447.94;104272;1257;63540;-56
2023/07/22 04:30:20;;;;;;;;;;;;;;;19.40;100.00;99445.23;104115;1266;60555;-59
2023/07/22 04:32:49;;;;;;;4.50;3.60;;;;;;;19.39;100.00;99438.02;103898;1276;73574;-57
2023/07/22 04:35:17;;;;;;;3.60;3.30;;;;;;;19.40;100.00;99436.73;104059;1264;68082;-59
2023/07/22 04:37:44;;;;;;;;;;;;;;;19.44;100.00;99439.98;104242;1257;72413;-57
2023/07/22 04:40:14;;;;;;;3.90;3.50;;;;;;;19.48;100.00;99442.46;104112;1257;61964;-58
2023/07/22 04:42:41;;;;;;;3.30;3.00;;;;;;;19.49;100.00;99441.02;104189;1257;60590;-58
2023/07/22 04:45:10;;;;;;;3.20;3.00;;;;;;;19.50;100.00;99445.69;104008;1262;74258;-56
2023/07/22 04:47:38;;;;;;;3.40;3.20;;;;;;;19.50;100.00;99445.20;104026;1263;70118;-55
2023/07/22 04:50:09;;;;;;;4.30;3.20;;;;;;;19.49;100.00;99441.88;104034;1262;71751;-55
2023/07/22 04:52:37;;;;;;;3.20;2.90;;;;;;;19.51;100.00;99437.33;104024;1264;61810;-55
2023/07/22 04:55:08;;;;;;;3.40;2.70;;;;;;;19.54;100.00;99435.79;104044;1273;60711;-56
2023/07/22 04:57:37;;;;;;;2.80;2.50;;;;;;;19.55;100.00;99434.42;104037;1263;74132;-55
2023/07/22 05:00:05;;;;;;;3.30;2.50;;;;;;;19.57;100.00;99440.15;104057;1258;68223;-57
2023/07/22 05:02:33;;;;;;;4.30;2.20;;;;;;;19.58;100.00;99440.61;104195;1270;71445;-56
2023/07/22 05:05:01;;;;;;;2.10;1.90;;;;;;;19.59;100.00;99438.22;104178;1257;61331;-55
2023/07/22 05:07:28;;;;;;;;;;;;;;;19.60;100.00;99434.17;104185;1263;60501;-55
2023/07/22 05:09:58;;;;;;;4.40;2.00;;;;;;;19.63;100.00;99433.97;104083;1257;73725;-54
2023/07/22 05:12:25;;;;;;;2.00;1.90;;;;;;;19.63;100.00;99431.99;104142;1274;70007;-55
2023/07/22 05:14:53;;;;;;;2.60;2.20;;;;;;;19.65;100.00;99430.70;104062;1262;72484;-55
2023/07/22 05:17:21;;;;;;;4.60;2.00;;;;;;;19.69;100.00;99424.02;106606;1256;61777;-55
2023/07/22 05:19:48;;;;;;;1.70;1.60;;;;;;;19.73;100.00;99418.41;106205;1257;59862;-55
2023/07/22 05:22:16;;;;;;;;;;;;;;;19.74;100.00;99416.00;104102;1261;72738;-54
2023/07/22 05:24:44;;;;;;;3.40;1.60;;;;;;;19.74;100.00;99412.96;104352;1257;69744;-55
2023/07/22 05:27:11;;;;;;;1.70;1.60;;;;;;;19.75;100.00;99412.05;104299;1262;72097;-55
2023/07/22 05:29:39;;;;;;;3.50;1.80;;;;;;;19.74;100.00;99406.02;104060;1267;61788;-55
2023/07/22 05:32:08;;;;;;;4.10;1.90;;;;;;;19.74;100.00;99410.66;104159;1261;60565;-55
2023/07/22 05:34:54;;;;;;;2.00;1.60;;;;;;;19.74;100.00;99410.66;103961;1279;74592;-55
2023/07/22 05:37:22;;;;;;;;;;;;;;;19.73;100.00;99409.84;104144;1262;69096;-55
2023/07/22 05:39:49;;;;;;;1.90;1.80;;;;;;;19.67;100.00;99419.56;104150;1276;72394;-55
2023/07/22 05:42:18;;;;;;;2.20;2.00;;;;;;;19.60;100.00;99425.66;104085;1258;61801;-55
2023/07/22 05:44:45;;;;;;;2.60;2.10;;;;;;;19.53;100.00;99432.46;104142;1272;59656;-55
2023/07/22 05:47:13;;;;;;;3.30;2.10;;;;;;;19.46;100.00;99436.95;104070;1264;74494;-55
2023/07/22 05:49:43;;;;;;;3.60;2.60;;;;;;;19.41;100.00;99436.62;104160;1265;69088;-56
2023/07/22 05:52:11;;;;;;;;;;;;;;;19.37;100.00;99437.00;104074;1273;72414;-56
2023/07/22 05:54:39;;;;;;;;;;;;;;;19.32;100.00;99434.74;104168;1260;61612;-55
2023/07/22 05:57:06;;;;;;;3.10;2.00;;;;;;;19.30;100.00;99440.27;104084;1257;60712;-56
2023/07/22 05:59:36;;;;;;;2.20;2.00;;;;;;;19.28;100.00;99449.27;103857;1264;72516;-56
2023/07/22 06:02:04;;;;;;;2.30;2.00;;;;;;;19.25;100.00;99451.64;104154;1260;69054;-55
2023/07/22 06:04:31;;;;;;;4.00;2.60;;;;;;;19.24;100.00;99450.45;103947;1260;72367;-56
2023/07/22 06:06:59;;;;;;;2.80;2.60;;;;;;;19.23;100.00;99458.35;103855;1263;61392;-56
2023/07/22 06:09:27;;;;;;;4.00;2.30;;;;;;;19.23;100.00;99462.30;104138;1259;59902;-55
2023/07/22 06:11:55;;;;;;;6.70;2.70;;;;;;;19.20;100.00;99464.90;104473;1258;73773;-55
2023/07/22 06:14:22;;;;;;;5.70;3.50;;;;;;;19.17;100.00;99475.96;104406;1269;69082;-55
2023/07/22 06:16:50;;;;;;;3.80;2.90;;;;;;;19.14;100.00;99477.08;104361;1256;72427;-54
2023/07/22 06:19:18;;;;;;;2.60;2.40;;;;;;;19.13;100.00;99482.48;108097;1253;61579;-55
2023/07/22 06:21:45;;;;;;;4.60;2.90;;;;;;;19.16;100.00;99481.36;105141;1256;60562;-55
2023/07/22 06:24:13;;;;;;;3.30;2.40;;;;;;;19.15;100.00;99483.05;104330;1259;73603;-55
2023/07/22 06:26:41;;;;;;;2.90;2.50;;;;;;;19.13;100.00;99486.58;104368;1254;69236;-55
2023/07/22 06:29:09;;;;;;;3.70;2.70;;;;;;;19.11;100.00;99483.71;108240;1253;73005;-55
2023/07/22 06:31:36;;;;;;;;;;;;;;;19.10;100.00;99484.89;108296;1254;61504;-56
2023/07/22 06:34:04;;;;;;;3.50;3.00;;;;;;;19.07;100.00;99489.02;107953;1253;59765;-56
2023/07/22 06:36:31;;;;;;;9.50;2.90;;;;;;;19.04;100.00;99488.00;108348;1256;73630;-56
2023/07/22 06:38:59;;;;;;;4.80;3.00;;;;;;;19.04;100.00;99486.59;108312;1254;69401;-57
2023/07/22 06:41:27;;;;;;;3.30;2.60;;;;;;;19.04;100.00;99488.89;108302;1253;73414;-55
2023/07/22 06:43:55;;;;;;;11.50;2.70;;;;;;;19.01;100.00;99487.85;108243;1253;61793;-57
2023/07/22 06:46:22;;;;;;;3.70;3.30;;;;;;;19.00;100.00;99484.73;108264;1253;59671;-56
2023/07/22 06:48:50;;;;;;;3.70;2.60;;;;;;;19.02;100.00;99486.42;108375;1253;74508;-56
2023/07/22 06:51:18;;;;;;;5.40;2.90;;;;;;;19.03;100.00;99484.17;108368;1252;69337;-57
2023/07/22 06:53:46;;;;;;;3.30;2.80;;;;;;;19.08;100.00;99488.73;108402;1255;72497;-56
2023/07/22 06:56:13;;;;;;;;;;;;;;;19.10;100.00;99495.02;108371;1254;61360;-56
2023/07/22 06:58:41;;;;;;;;;;;;;;;19.10;100.00;99492.73;108538;1252;60640;-56
2023/07/22 07:01:08;;;;;;;3.90;2.40;;;;;;;19.08;100.00;99493.95;108380;1254;73708;-56
2023/07/22 07:03:36;;;;;;;5.40;2.80;;;;;;;19.07;100.00;99486.69;108375;1253;69144;-55
2023/07/22 07:06:03;;;;;;;2.70;2.40;;;;;;;19.10;100.00;99489.68;108381;1254;71586;-55
2023/07/22 07:08:31;;;;;;;3.40;2.40;;;;;;;19.14;100.00;99490.60;108362;1254;61424;-56
2023/07/22 07:11:00;;;;;;;3.50;2.40;;;;;;;19.19;100.00;99490.85;108384;1253;59638;-56
2023/07/22 07:13:28;;;;;;;3.60;2.50;;;;;;;19.24;100.00;99489.98;108343;1253;74364;-56
2023/07/22 07:15:55;;;;;;;2.80;2.60;;;;;;;19.26;100.00;99490.80;108500;1253;69089;-56
2023/07/22 07:18:23;;;;;;;3.40;2.50;;;;;;;19.29;100.00;99487.63;108188;1254;72366;-56
2023/07/22 07:20:51;;;;;;;5.10;2.50;;;;;;;19.29;100.00;99485.50;108206;1252;61510;-56
2023/07/22 07:23:18;;;;;;;2.60;2.30;;;;;;;19.30;100.00;99483.05;108183;1253;60711;-56
2023/07/22 07:25:46;;;;;;;3.60;2.50;;;;;;;19.30;100.00;99476.31;108292;1253;72653;-57
2023/07/22 07:28:14;;;;;;;4.40;2.80;;;;;;;19.31;100.00;99471.22;108231;1253;68301;-56
2023/07/22 07:30:42;;;;;;;3.70;2.30;;;;;;;19.31;100.00;99473.06;108275;1252;73073;-55
2023/07/22 07:33:10;;;;;;;4.80;2.30;;;;;;;19.30;100.00;99474.16;108287;1254;61477;-56
2023/07/22 07:35:37;;;;;;;2.70;2.50;;;;;;;19.30;100.00;99467.95;108330;1253;60334;-56
2023/07/22 07:38:05;;;;;;;3.80;2.10;;;;;;;19.30;100.00;99467.94;108381;1253;72922;-56
2023/07/22 07:40:33;;;;;;;3.30;2.20;;;;;;;19.32;100.00;99468.69;108398;1252;68194;-56
2023/07/22 07:43:01;;;;;;;2.00;1.90;;;;;;;19.33;100.00;99461.67;108369;1254;72769;-56
2023/07/22 07:45:28;;;;;;;;;;;;;;;19.36;100.00;99463.05;108549;1253;61378;-56
2023/07/22 07:47:56;;;;;;;3.70;2.50;;;;;;;19.37;100.00;99464.76;108373;1253;59607;-56
2023/07/22 07:50:23;;;;;;;3.10;2.80;;;;;;;19.36;100.00;99465.29;108412;1256;73074;-56
2023/07/22 07:52:51;;;;;;;3.00;2.70;;;;;;;19.38;100.00;99463.39;108390;1253;68087;-57
2023/07/22 07:55:19;;;;;;;4.10;2.60;;;;;;;19.41;100.00;99454.95;108320;1251;72346;-57
2023/07/22 07:57:47;;;;;;;5.30;2.80;;;;;;;19.39;100.00;99447.64;108484;1253;61403;-57
2023/07/22 08:00:14;;;;;;;5.30;2.80;;;;;;;19.38;100.00;99446.67;108577;1252;59846;-56
2023/07/22 08:02:42;;;;;;;4.20;2.90;;;;;;;19.37;100.00;99442.36;108441;1252;73829;-56
2023/07/22 08:05:12;;;;;;;4.30;2.80;;;;;;;19.35;100.00;99445.71;108402;1252;70190;-56
2023/07/22 08:07:39;;;;;;;5.50;2.30;;;;;;;19.37;100.00;99447.64;108508;1253;73420;-55
2023/07/22 08:10:07;;;;;;;4.50;2.80;;;;;;;19.39;100.00;99441.77;108333;1254;61380;-56
2023/07/22 08:12:37;;;;;;;2.70;2.10;;;;;;;19.43;100.00;99439.83;108398;1252;59688;-57
2023/07/22 08:15:05;;;;;;;2.80;2.50;;;;;;;19.48;100.00;99440.89;108424;1252;73449;-56
2023/07/22 08:17:33;;;;;;;4.00;2.80;;;;;;;19.49;100.00;99438.33;108327;1253;69123;-56
2023/07/22 08:20:01;;;;;;;3.90;2.80;;;;;;;19.51;100.00;99434.27;108235;1253;71546;-56
2023/07/22 08:22:28;;;;;;;;;;;;;;;19.51;100.00;99433.20;108287;1254;61381;-56
2023/07/22 08:24:56;;;;;;;2.90;2.60;;;;;;;19.50;100.00;99435.27;108301;1254;58469;-56
2023/07/22 08:27:24;;;;;;;3.00;2.70;;;;;;;19.46;100.00;99431.84;108455;1252;72406;-56
2023/07/22 08:32:38;;;;;;;3.40;2.60;;;;;;;19.41;100.00;99425.98;102176;1292;601635;-56
2023/07/22 08:35:06;;;;;;;2.80;2.60;;;;;;;19.39;100.00;99438.62;106770;1267;61506;-54
2023/07/22 08:37:34;;;;;;;3.80;2.60;;;;;;;19.38;100.00;99435.30;106586;1265;59879;-54
2023/07/22 08:40:02;;;;;;;4.10;2.80;;;;;;;19.36;100.00;99438.30;105409;1270;71939;-54
2023/07/22 08:42:30;;;;;;;2.90;2.70;;;;;;;19.36;100.00;99430.33;106619;1267;69149;-55
2023/07/22 08:44:58;;;;;;;2.60;2.40;;;;;;;19.35;100.00;99427.03;105951;1272;72701;-54
2023/07/22 08:47:26;;;;;;;3.20;2.40;;;;;;;19.33;100.00;99428.60;103520;1267;248082;-54
2023/07/22 08:49:54;;;;;;;3.10;2.90;;;;;;;19.30;100.00;99432.26;104009;1263;60304;-54
2023/07/22 08:52:21;;;;;;;5.50;2.70;;;;;;;19.29;100.00;99432.16;103911;1264;71938;-54
2023/07/22 08:54:49;;;;;;;3.30;3.00;;;;;;;19.27;100.00;99433.54;103671;1271;69144;-54
2023/07/22 08:57:17;;;;;;;3.40;2.80;;;;;;;19.25;100.00;99433.33;103934;1279;72797;-55
2023/07/22 08:59:45;;;;;;;9.60;3.00;;;;;;;19.23;100.00;99427.83;103780;1266;62674;-56
2023/07/22 09:02:13;;;;;;;3.70;2.70;;;;;;;19.19;100.00;99417.33;104126;1261;59705;-56
2023/07/22 09:04:42;;;;;;;4.60;2.70;;;;;;;19.14;100.00;99402.98;103953;1266;72882;-55
2023/07/22 09:07:11;;;;;;;5.90;2.40;;;;;;;19.06;100.00;99401.69;103918;1279;69122;-55
2023/07/22 09:09:39;;;;;;;3.10;2.60;;;;;;;18.99;100.00;99400.29;103914;1266;72481;-56
2023/07/22 09:12:07;;;;;;;;;;;;;;;18.94;100.00;99391.27;104062;1263;61430;-56
2023/07/22 09:14:35;;;;;;;5.30;2.50;;;;;;;18.88;100.00;99387.72;104046;1265;59817;-57
2023/07/22 09:17:05;;;;;;;2.90;2.50;;;;;;;18.80;100.00;99389.77;105882;1266;71797;-56
2023/07/22 09:19:32;;;;;;;3.00;2.50;;;;;;;18.75;100.00;99382.15;107475;1260;69709;-55
2023/07/22 09:22:00;;;;;;;2.70;2.50;;;;;;;18.71;100.00;99375.05;107416;1260;72315;-55
2023/07/22 09:24:28;;;;;;;;;;;;;;;18.66;100.00;99374.53;107477;1260;61799;-55
2023/07/22 09:26:55;;;;;;;;;;;;;;;18.63;100.00;99371.25;107452;1260;60103;-55
2023/07/22 09:29:36;;;;;;;5.20;2.40;;;;;;;18.58;100.00;99375.69;107480;1260;73589;-55
2023/07/22 09:32:05;;;;;;;2.20;2.00;;;;;;;18.55;100.00;99381.30;107416;1260;69063;-55
2023/07/22 09:34:32;;;;;;;;;;;;;;;18.53;100.00;99373.08;107553;1260;73307;-55
2023/07/22 09:37:00;;;;;;;3.80;2.30;;;;;;;18.51;100.00;99357.45;107559;1263;60671;-55
2023/07/22 09:39:28;;;;;;;3.30;2.50;;;;;;;18.50;100.00;99352.73;107620;1260;59659;-55
2023/07/22 09:41:55;;;;;;;2.70;2.50;;;;;;;18.52;100.00;99345.66;108525;1254;72115;-55
2023/07/22 09:44:30;;;;;;;3.60;2.30;;;;;;;18.51;100.00;99348.61;108283;1253;70439;-55
2023/07/22 09:46:58;;;;;;;2.60;2.40;;;;;;;18.50;100.00;99351.14;108572;1252;73385;-54
2023/07/22 09:49:25;;;;;;;3.40;2.90;;;;;;;18.51;100.00;99341.66;108469;1252;61749;-55
2023/07/22 09:51:53;;;;;;;2.20;2.10;;;;;;;18.53;100.00;99346.85;108103;1252;60653;-55
2023/07/22 09:54:30;;;;;;;4.90;2.40;;;;;;;18.53;100.00;99337.94;108486;1253;72872;-55
2023/07/22 09:56:58;;;;;;;2.50;1.80;;;;;;;18.53;100.00;99339.70;108574;1253;69082;-55
2023/07/22 09:59:27;;;;;;;3.20;2.20;;;;;;;18.55;100.00;99342.63;108583;1252;73397;-55
2023/07/22 10:01:54;;;;;;;2.20;2.00;;;;;;;18.55;100.00;99340.98;108243;1254;62456;-55
2023/07/22 10:06:40;;;;;;;1.90;1.80;;;;;;;18.22;100.00;99331.54;100934;1292;615538;-56
2023/07/22 10:09:07;;;;;;;;;;;;;;;18.54;100.00;99337.86;103734;1272;62057;-57
2023/07/22 10:11:35;;;;;;;2.00;1.90;;;;;;;18.53;100.00;99337.77;103299;1268;59850;-56
2023/07/22 10:14:02;;;;;;;;;;;;;;;18.52;100.00;99338.56;103641;1270;72437;-57
2023/07/22 10:16:29;;;;;;;2.90;2.40;;;;;;;18.51;100.00;99337.98;103683;1271;70093;-57
2023/07/22 10:18:59;;;;;;;2.00;1.90;;;;;;;18.48;100.00;99330.33;103750;1264;308392;-57
2023/07/22 10:21:27;;;;;;;2.10;2.00;;;;;;;18.48;100.00;99326.31;107144;1264;61831;-57
2023/07/22 10:23:57;;;;;;;2.90;2.60;;;;;;;18.48;100.00;99324.15;105539;1266;59731;-57
2023/07/22 10:26:24;;;;;;;2.80;2.40;;;;;;;18.51;100.00;99322.17;104387;1269;71063;-56
2023/07/22 10:29:11;;;;;;;2.50;2.20;;;;;;;18.50;100.00;99317.63;104041;1266;69851;-56
2023/07/22 10:31:38;;;;;;;2.40;2.30;;;;;;;18.50;100.00;99306.25;103683;1264;72830;-56
2023/07/22 10:34:05;;;;;;;9.10;2.60;;;;;;;18.48;100.00;99303.73;104898;1264;61700;-56
2023/07/22 10:36:32;;;;;;;2.10;2.00;;;;;;;18.50;100.00;99303.71;107097;1264;60332;-57
2023/07/22 10:38:59;;;;;;;2.50;2.30;;;;;;;18.53;100.00;99302.44;107764;1256;72018;-57
2023/07/22 10:41:39;;;;;;;2.30;2.10;;;;;;;18.55;100.00;99287.53;107831;1256;69564;-57
2023/07/22 10:44:08;;;;;;;2.50;2.30;;;;;;;18.58;100.00;99297.95;107751;1256;72755;-57
2023/07/22 10:46:43;;;;;;;2.70;2.50;;;;;;;18.61;100.00;99307.14;107443;1259;61819;-55
2023/07/22 10:49:14;;;;;;;3.00;2.60;;;;;;;18.63;100.00;99305.21;106495;1260;60200;-56
2023/07/22 10:51:41;;;;;;;3.60;2.60;;;;;;;18.64;100.00;99305.62;104411;1272;72665;-56
2023/07/22 10:54:13;;;;;;;2.40;2.20;;;;;;;18.65;100.00;99300.20;104249;1256;69283;-56
2023/07/22 10:56:43;;;;;;;3.00;2.80;;;;;;;18.65;100.00;99292.96;104399;1257;72646;-56
2023/07/22 10:59:11;;;;;;;2.30;2.20;;;;;;;18.65;100.00;99293.52;104241;1262;61120;-56
2023/07/22 11:01:38;;;;;;;;;;;;;;;18.67;100.00;99295.45;104445;1262;59916;-56
2023/07/22 11:04:18;;;;;;;3.20;2.20;;;;;;;18.64;100.00;99295.15;104524;1257;72641;-56
2023/07/22 11:06:48;;;;;;;2.40;2.20;;;;;;;18.60;100.00;99292.50;104286;1261;69556;-56
2023/07/22 11:09:27;;;;;;;2.00;1.90;;;;;;;18.59;100.00;99293.80;104375;1261;73111;-56
2023/07/22 11:12:05;;;;;;;1.90;1.80;;;;;;;18.57;100.00;99292.72;104245;1258;61871;-56
2023/07/22 11:14:49;;;;;;;2.90;2.10;;;;;;;18.54;100.00;99294.40;104307;1256;60776;-56
2023/07/22 11:17:37;;;;;;;3.30;1.80;;;;;;;18.55;100.00;99296.42;104206;1269;71633;-56
2023/07/22 11:20:04;;;;;;;2.30;1.90;;;;;;;18.54;100.00;99289.64;104081;1275;68976;-57
2023/07/22 11:22:31;;;;;;;;;;;;;;;18.54;100.00;99284.63;107807;1256;72997;-59
2023/07/22 11:24:58;;;;;;;2.20;2.00;;;;;;;18.53;100.00;99286.27;104163;1277;61743;-57
2023/07/22 11:27:25;;;;;;;1.90;1.80;;;;;;;18.51;100.00;99288.04;104471;1273;60071;-56
2023/07/22 11:29:52;;;;;;;3.50;1.90;;;;;;;18.51;100.00;99290.42;104265;1273;73112;-57
2023/07/22 11:32:21;;;;;;;2.30;1.90;;;;;;;18.48;100.00;99289.35;104212;1266;69762;-56
2023/07/22 11:34:51;;;;;;;1.80;1.70;;;;;;;18.49;100.00;99288.05;104246;1270;72243;-57
2023/07/22 11:37:18;;;;;;;2.10;1.90;;;;;;;18.49;100.00;99284.83;104069;1265;61446;-57